Meteo Giornale » Osservazioni meteo Stati Uniti (USA) » Hoquiam Bowerman
ore: 22:53 - Osservazioni Meteo Hoquiam Bowerman
Lat. 46° 58' N Lon. 123° 55' W Alt. 4 metri s.l.m.
15 °C
Sereno
Temp. 24 Ore
10 °C
22 °C
Nord
0 Km/h
Dew point 13 °C
Umidità 87 %
Visibilità 10 Km
Il sole sorge alle ore 06:34
Il sole tramonta alle ore 19:57
| Data e Ora | Cielo e Fenomeni | T °C | DP °C | Um. % | Pres. hPa | Vis. km | Vento km/h | |
|---|---|---|---|---|---|---|---|---|
| Oggi h: 22:53 | Sereno | 15 | 13 | 87 | 1009 | 10 | N 0 | |
| Oggi h: 21:53 | Sereno | 16 | 13 | 82 | 1009 | 10 | N 5.5 | |
| Oggi h: 20:53 | Sereno | 17 | 14 | 82 | 1008 | 10 | O 7.4 | |
| Oggi h: 19:53 | Sereno | 18 | 13 | 72 | 1008 | 10 | O 11.1 | |
| Oggi h: 18:53 | Sereno | 19 | 14 | 72 | 1008 | 10 | O 14.8 | |
| Oggi h: 17:53 | Sereno | 21 | 14 | 64 | 1008 | 10 | O 14.8 | |
| Oggi h: 16:53 | Sereno | 22 | 14 | 60 | 1008 | 10 | O/NO 14.8 | |
| Oggi h: 15:53 | Sereno | 21 | 14 | 64 | 1009 | 10 | O 18.5 | |
| Oggi h: 14:53 | Sereno | 21 | 14 | 64 | 1009 | 10 | O 20.3 | |
| Oggi h: 13:53 | Sereno | 22 | 14 | 60 | 1010 | 10 | O 22.2 | |
| Oggi h: 12:53 | Sereno | 22 | 14 | 60 | 1010 | 10 | O 20.3 | |
| Oggi h: 11:53 | Sereno | 21 | 13 | 60 | 1011 | 10 | O 14.8 | |
| Oggi h: 10:56 | Pioggia | 21 | 12 | 56 | 1012 | 6 | N 11.1 | |
| Oggi h: 10:53 | Pioggia | 21 | 12 | 56 | 1012 | 5 | E 11.1 | |
| Oggi h: 09:53 | Sereno | 17 | 13 | 77 | 1012 | 10 | SE 11.1 | |
| Oggi h: 08:53 | Sereno | 15 | 12 | 82 | 1013 | 10 | E/SE 7.4 | |
| Oggi h: 07:53 | Sereno | 12 | 11 | 93 | 1013 | 10 | N 5.5 | |
| Oggi h: 06:53 | Sereno | 10 | 9 | 93 | 1014 | 10 | N 5.5 | |
| Oggi h: 05:53 | Sereno | 11 | 9 | 87 | 1014 | 10 | E 7.4 | |
| Oggi h: 04:53 | Sereno | 11 | 11 | 100 | 1014 | 10 | N 0 | |
| Oggi h: 03:53 | Sereno | 12 | 11 | 93 | 1014 | 10 | E/NE 7.4 | |
| Oggi h: 02:53 | Sereno | 12 | 12 | 100 | 1015 | 10 | N 5.5 | |
| Oggi h: 01:53 | Sereno | 12 | 12 | 100 | 1015 | 10 | N 0 | |
| Oggi h: 00:53 | Sereno | 13 | 12 | 93 | 1016 | 10 | N 0 | |
| Ieri h: 23:53 | Sereno | 14 | 12 | 87 | 1017 | 10 | N 0 | |



